Ashland, Nebraska
Current Conditions -  °F | °C
As of 9:55 AM on Friday 19 Dec 2014 (Local Time) from KMLE Reporting Station
Haze Haze  
Wind Chill: 26°   Ceiling: 600
Heat Index: 32°   Visibility: 4mi
Dew Point: 29°   Wind: 7mph
Humidity: 89%   Direction: 150°SSE
Pressure: 30.24"   Gusts: NA
Location:  41.04°N, 96.37°W
Report Text: KMLE 191555Z AUTO 15006KT 4SM BR OVC006 00/M01 A3024 RMK AO2 T00011015
Loading
Personal Weather Stations






























Interactive Weather Map New forecast layout! Learn more

10-Day Weather Forecast

Advertisements
Track Severe Weather on mobile